Home > Products > Valid Products > TAF

000
FTUS44 KEPZ 211700
TAFDMN
TAF
KDMN 211723Z 2118/2218 09009KT P6SM VCSH FEW050 BKN080 OVC200
     FM212000 11007KT P6SM VCTS SCT050CB BKN080 BKN200
      TEMPO 2121/2201 VRB25G35KT 3SM TSRA BKN040CB OVC080
     FM220600 08007KT P6SM VCSH BKN050 OVC080
     FM221600 10005KT P6SM VCTS BKN040CB BKN070=



000
FTUS44 KEPZ 211700
TAFELP
TAF
KELP 211723Z 2118/2218 04005KT P6SM VCTS FEW040CB BKN080 BKN200
     FM212000 10008KT P6SM SCT050 BKN080
     FM212300 12007KT P6SM VCTS SCT050CB BKN080
     FM220600 07007KT P6SM VCSH BKN040 OVC080
     FM221700 09008KT P6SM VCTS SCT030CB SCT070 BKN200=



000
FTUS44 KEPZ 211700
TAFTCS
TAF
KTCS 211723Z 2118/2218 03007KT P6SM SCT060 BKN120
     FM212000 VRB06KT P6SM VCTS SCT050CB BKN080
      TEMPO 2121/2201 VRB25G35KT 3SM TSRA BKN040CB OVC080
     FM220600 16005KT P6SM VCSH BKN040 OVC070
     FM221600 VRB04KT P6SM VCTS SCT040CB BKN070=



000
FTUS44 KEPZ 211200 AAA
TAFDMN
TAF AMD
KDMN 211226Z 2112/2212 06009KT P6SM VCTS SCT050CB BKN060
      TEMPO 2112/2114 5SM TSRA BKN040CB OVC060
     FM211800 12009KT P6SM VCTS SCT050CB BKN080 BKN200
      TEMPO 2202/2206 VRB25G35KT 3SM TSRA BKN040CB OVC080
     FM220600 08007KT P6SM VCSH BKN050 OVC080=



000
FTUS44 KEPZ 211100
TAFELP
TAF
KELP 211130Z 2112/2212 07009KT P6SM SCT100 SCT250
     FM211800 11010KT P6SM VCTS SCT050CB SCT100 BKN200
      TEMPO 2202/2206 VRB25G35KT 3SM TSRA BKN040CB OVC080
     FM220600 09007KT P6SM VCSH BKN040 OVC080=



000
FTUS44 KEPZ 211100
TAFTCS
TAF
KTCS 211130Z 2112/2212 07008KT P6SM VCSH BKN050 OVC090
     FM211800 12009KT P6SM VCTS SCT050CB SCT100 BKN200
      TEMPO 2200/2204 VRB25G35KT 3SM TSRA BKN040CB OVC080
     FM220600 16005KT P6SM VCSH BKN040 OVC070=



000
FTUS44 KEPZ 211100
TAFDMN
TAF
KDMN 211130Z 2112/2212 07009KT P6SM VCSH BKN060 BKN090
     FM211800 12009KT P6SM VCTS SCT050CB BKN080 BKN200
      TEMPO 2202/2206 VRB25G35KT 3SM TSRA BKN040CB OVC080
     FM220600 08007KT P6SM VCSH BKN050 OVC080=



000
FTUS44 KEPZ 210800 AAA
TAFTCS
TAF AMD
KTCS 210820Z 2108/2206 07009KT P6SM VCTS SCT060CB BKN100 BKN200
      TEMPO 2108/2112 3SM +TSRA BKN050CB OVC070
     FM211200 07008KT P6SM SCT100 SCT250
     FM211900 12009KT P6SM VCTS SCT050CB SCT100 BKN200
      TEMPO 2200/2204 VRB25G35KT 3SM TSRA BKN040CB OVC080=



000
FTUS44 KEPZ 210500
TAFELP
TAF
KELP 210539Z 2106/2206 07009KT P6SM SCT100 SCT250
     FM212000 11010KT P6SM VCTS SCT050CB SCT100 BKN200
      TEMPO 2202/2206 VRB25G35KT 3SM TSRA BKN040CB OVC080=



000
FTUS44 KEPZ 210500
TAFDMN
TAF
KDMN 210539Z 2106/2206 07009KT P6SM SCT060 SCT250
     FM212200 12009KT P6SM VCTS SCT050CB SCT100 BKN200
      TEMPO 2202/2206 VRB25G35KT 3SM TSRA BKN040CB OVC080=



000
FTUS44 KEPZ 210500
TAFTCS
TAF
KTCS 210539Z 2106/2206 07009KT P6SM VCTS SCT060CB BKN100 BKN200
     FM210800 07008KT P6SM SCT100 SCT250
     FM211900 12009KT P6SM VCTS SCT050CB SCT100 BKN200
      TEMPO 2200/2204 VRB25G35KT 3SM TSRA BKN040CB OVC080=



000
FTUS44 KEPZ 202300
TAFTCS
TAF
KTCS 202340Z 2100/2124 VRB06KT P6SM VCTS SCT060CB SCT120 SCT250
     FM210400 35008KT P6SM SCT060 SCT100 SCT200
     FM211700 15009KT P6SM VCTS SCT040CB SCT100 BKN200=



000
FTUS44 KEPZ 202300
TAFELP
TAF
KELP 202340Z 2100/2124 06008KT P6SM VCTS SCT060CB SCT120 SCT250
      TEMPO 2100/2101 04012G20KT
     FM210400 05008KT P6SM SCT060 SCT100 SCT200
     FM211700 10009KT P6SM VCTS SCT040CB SCT100 BKN200=



000
FTUS44 KEPZ 202300
TAFDMN
TAF
KDMN 202340Z 2100/2124 10008KT P6SM VCTS SCT060CB SCT120 SCT250
     FM210400 05008KT P6SM SCT060 SCT100 SCT200
     FM211700 10009KT P6SM VCTS SCT040CB SCT100 BKN200=



000
FTUS44 KEPZ 202200 AAA
TAFELP
TAF AMD
KELP 202254Z 2023/2118 10008KT P6SM VCTS SCT060CB SCT250
      TEMPO 2100/2101 04015G25KT
     FM210400 12007KT P6SM FEW060 SCT100
     FM211600 03007KT P6SM FEW100 SCT250=



000
FTUS44 KEPZ 201700
TAFTCS
TAF
KTCS 201739Z 2018/2118 03007KT P6SM SCT040 SCT250
     FM210400 29007KT P6SM SCT060 SCT250
     FM210700 35008KT P6SM SCT250
     FM211500 02010KT P6SM SCT050 SCT250=



000
FTUS44 KEPZ 201700
TAFDMN
TAF
KDMN 201739Z 2018/2118 24005KT 6SM BR FEW010 FEW120
     FM201900 27008KT P6SM SCT050 SCT100
     FM202200 32005KT P6SM VCTS SCT050CB SCT100
     FM210400 28005KT P6SM SCT060 SCT250
     FM211500 05007KT P6SM SCT100 SCT250=



000
FTUS44 KEPZ 201700
TAFELP
TAF
KELP 201739Z 2018/2118 VRB05KT P6SM SCT040 SCT250
     FM202200 10008KT P6SM VCTS SCT060CB SCT250
     FM210400 12007KT P6SM FEW060 SCT100
     FM211600 03007KT P6SM FEW100 SCT250=



000
FTUS44 KEPZ 201100
TAFDMN
TAF
KDMN 201134Z 2012/2112 24005KT 6SM BR FEW010 FEW120
     FM201900 27008KT P6SM SCT050 SCT100
     FM210400 28005KT P6SM SCT060 SCT250=



000
FTUS44 KEPZ 201100
TAFTCS
TAF
KTCS 201134Z 2012/2112 30006KT P6SM FEW040 FEW250
     FM201800 17009KT P6SM SCT050 SCT250
     FM210400 29007KT P6SM SCT060 SCT250=



000
FTUS44 KEPZ 201100
TAFELP
TAF
KELP 201134Z 2012/2112 VRB04KT P6SM SCT060 SCT250
     FM201800 VRB05KT P6SM FEW070 SCT250
     FM202200 10008KT P6SM VCTS SCT060CB SCT250
     FM210400 12007KT P6SM FEW060 SCT100=



000
FTUS44 KEPZ 200500
TAFDMN
TAF
KDMN 200530Z 2006/2106 VRB04KT P6SM FEW040
     FM201000 VRB03KT 6SM BR FEW010 FEW120
      TEMPO 2010/2014 3SM BR SCT008
     FM201900 27008KT P6SM SCT050 SCT100=



000
FTUS44 KEPZ 200500
TAFELP
TAF
KELP 200530Z 2006/2106 VRB04KT P6SM SCT060 SCT250
      TEMPO 2010/2014 3SM BR FEW008
     FM201800 VRB05KT P6SM FEW070 SCT250
     FM202200 10008KT P6SM VCTS SCT060CB SCT250
     FM210400 12007KT P6SM FEW060 SCT100=



000
FTUS44 KEPZ 200500
TAFTCS
TAF
KTCS 200530Z 2006/2106 30006KT P6SM FEW040 FEW250
      TEMPO 2009/2013 2SM BR SCT007
     FM201800 17009KT P6SM SCT050 SCT250
     FM210400 29007KT P6SM SCT060 SCT250=



000
FTUS44 KEPZ 192300 RRA
TAFDMN
TAF
KDMN 192341Z 2000/2024 VRB04KT P6SM SCT050
     FM200200 VRB04KT P6SM SCT040 SCT120
     FM200900 VRB03KT 5SM BR FEW040 FEW120
      TEMPO 2010/2014 1SM BR SCT002
     FM201400 VRB05KT P6SM FEW010 SCT040
     FM201900 14006KT P6SM SCT040 BKN100=



000
FTUS44 KEPZ 192300 RRA
TAFELP
TAF
KELP 192341Z 2000/2024 28010KT P6SM BKN040
     FM200300 VRB04KT P6SM SCT050 SCT250
      TEMPO 2010/2014 3SM BR
     FM201800 03005KT P6SM FEW070 SCT250=



000
FTUS44 KEPZ 192300 RRA
TAFTCS
TAF
KTCS 192341Z 2000/2024 VRB04KT P6SM SCT050 SCT250
     FM200300 31005KT P6SM SCT040 BKN250
     FM201600 03005KT P6SM SCT050 SCT250=



000
FTUS44 KEPZ 191700
TAFTCS
TAF
KTCS 191723Z 1918/2018 VRB04KT P6SM SCT030
     FM191900 17007KT P6SM BKN040
     FM200300 31005KT P6SM SCT040 BKN250=



000
FTUS44 KEPZ 191700
TAFDMN
TAF
KDMN 191723Z 1918/2018 27006KT P6SM BKN040
     FM200200 24004KT P6SM SCT040 SCT120
      TEMPO 2010/2014 1SM BR SCT002=



000
FTUS44 KEPZ 191700
TAFELP
TAF
KELP 191723Z 1918/2018 28005KT P6SM FEW015 SCT030 BKN060
     FM191900 28010KT P6SM BKN040
     FM200300 VRB04KT P6SM SCT050 SCT250
      TEMPO 2010/2014 3SM BR=



000
FTUS44 KEPZ 191500 AAC
TAFELP
TAF AMD
KELP 191554Z 1916/2012 33005KT P6SM FEW005 SCT020 BKN120
      TEMPO 1916/1918 BKN015
     FM191900 28010KT P6SM SCT040 BKN120
     FM200300 31005KT P6SM FEW060 SCT250=



000
FTUS44 KEPZ 191300 AAB
TAFELP
TAF AMD
KELP 191329Z 1913/2012 33005KT P6SM FEW005 SCT020 BKN120
     FM191900 28010KT P6SM SCT040 BKN120
     FM200300 31005KT P6SM FEW060 SCT250=



000
FTUS44 KEPZ 191100 AAA
TAFDMN
TAF AMD
KDMN 191147Z 1912/2006 VRB05KT P6SM BKN040
      TEMPO 1912/1914 VRB05KT 3SM BR BKN005
     FM191600 31006KT P6SM SCT050 BKN150
     FM200200 30004KT P6SM FEW160 SCT250=



000
FTUS44 KEPZ 191100 AAA
TAFTCS
TAF AMD
KTCS 191147Z 1912/2006 VRB04KT P6SM BKN040 BKN120
      TEMPO 1912/1914 VRB04KT 3SM BR BKN005
     FM191800 35008KT P6SM SCT050 BKN120
     FM200300 33005KT P6SM SCT250=



000
FTUS44 KEPZ 191100 AAA
TAFELP
TAF AMD
KELP 191147Z 1912/2012 35005KT P6SM BKN020 OVC060
      TEMPO 1912/1914 35005KT 3SM BR BKN005
     FM191900 28010KT P6SM SCT040 BKN120
     FM200300 31005KT P6SM FEW060 SCT250=



000
FTUS44 KEPZ 190700 AAB
TAFTCS
TAF AMD
KTCS 190744Z 1908/2006 VRB04KT P6SM SCT100
      TEMPO 1908/1912 VRB04KT 1/4SM FG BKN002
     FM191200 30005KT P6SM SCT100 BKN150
     FM191800 35008KT P6SM SCT050 BKN120
     FM200300 33005KT P6SM SCT250=



000
FTUS44 KEPZ 190600 AAA
TAFTCS
TAF AMD
KTCS 190654Z 1907/2006 VRB04KT P6SM SCT100
      TEMPO 1907/1911 VRB04KT 1SM BR BKN002
     FM191100 30005KT P6SM SCT100 BKN150
     FM191800 35008KT P6SM SCT050 BKN120
     FM200300 33005KT P6SM SCT250=



000
FTUS44 KEPZ 190500
TAFTCS
TAF
KTCS 190540Z 1906/2006 VRB04KT P6SM SCT100
     FM190900 30005KT P6SM SCT100 BKN150
     FM191800 35008KT P6SM SCT050 BKN120
     FM200300 33005KT P6SM SCT250=



000
FTUS44 KEPZ 190500
TAFDMN
TAF
KDMN 190540Z 1906/2006 VRB05KT P6SM VCSH BKN020
     FM190900 23004KT 3SM BR BKN020
     FM191300 31006KT P6SM SCT050 BKN150
     FM200200 30004KT P6SM FEW160 SCT250=



000
FTUS44 KEPZ 190500
TAFELP
TAF
KELP 190540Z 1906/2006 36005KT P6SM VCSH BKN020 OVC060
     FM191000 VRB04KT 5SM BR SCT025 SCT060 BKN100
     FM191900 28010KT P6SM SCT040 BKN120
     FM200300 31005KT P6SM FEW060 SCT250=



000
FTUS44 KEPZ 190500
TAFELP
TAF
KELP 190530Z 1906/2006 36005KT P6SM VCSH BKN020 OVC060
     FM191000 VRB04KT 5SM BR SCT025 SCT060 BKN100
     FM191900 28010KT P6SM SCT040 BKN120
     FM200300 31005KT P6SM FEW060 SCT250=



000
FTUS44 KEPZ 190500
TAFDMN
TAF
KDMN 190530Z 1906/2006 VRB05KT P6SM VCSH BKN020
     FM190800 23004KT P6SM SCT030 BKN070
     FM191900 31006KT P6SM SCT050 BKN150
     FM200200 30004KT P6SM FEW160 SCT250=



000
FTUS44 KEPZ 190500
TAFTCS
TAF
KTCS 190530Z 1906/2006 VRB04KT P6SM SCT100
     FM190900 30005KT P6SM SCT100 BKN150
     FM191800 35008KT P6SM SCT050 BKN120
     FM200300 33005KT P6SM SCT250=



000
FTUS44 KEPZ 190500
TAFDMN
TAF
KDMN 190527Z 1906/2006 VRB05KT P6SM VCSH FEW015 SCT030 BKN060
     FM190800 23004KT P6SM SCT030 BKN070
     FM191900 31006KT P6SM SCT050 BKN150
     FM200200 30004KT P6SM FEW160 SCT250=



000
FTUS44 KEPZ 190500
TAFELP
TAF
KELP 190527Z 1906/2006 36005KT P6SM VCSH FEW008 SCT040 BKN070
     FM191000 VRB04KT 5SM BR SCT025 SCT060 BKN100
     FM191900 28010KT P6SM SCT040 BKN120
     FM200300 31005KT P6SM FEW060 SCT250=



000
FTUS44 KEPZ 190500
TAFTCS
TAF
KTCS 190527Z 1906/2006 VRB04KT P6SM SCT100
     FM190900 30005KT P6SM SCT100 BKN150
     FM191800 35008KT P6SM SCT050 BKN120
     FM200300 33005KT P6SM SCT250=



000
FTUS44 KEPZ 190200 AAA
TAFELP
TAF AMD
KELP 190223Z 1902/1924 36010KT P6SM SHRA FEW010 SCT030 BKN060
      TEMPO 1902/1904 4SM RA FEW008 BKN025 OVC060
     FM190400 VRB05KT P6SM VCSH SCT025 BKN060 OVC100
     FM191000 25010KT P6SM SCT028 SCT060 BKN100
     FM191900 17012G21KT P6SM SCT040 BKN120=



000
FTUS44 KEPZ 182300
TAFELP
TAF
KELP 182338Z 1900/1924 01010KT P6SM -SHRA VCTS FEW005 BKN060CB
     FM190100 36010KT P6SM SHRA BKN030 OVC060
      TEMPO 1901/1905 VRB20G35KT 3SM +TSRA BKN020CB
     FM190500 VRB05KT P6SM VCSH SCT025 BKN060 OVC100
     FM191000 25010KT P6SM SCT028 SCT060 BKN100
     FM191900 17012G21KT P6SM SCT040 BKN120=



000
FTUS44 KEPZ 182300
TAFTCS
TAF
KTCS 182338Z 1900/1924 VRB04KT P6SM VCSH FEW040 BKN100
     FM190700 32005KT P6SM VCSH SCT025 BKN100
     FM191800 02005KT P6SM SCT060 BKN120=



000
FTUS44 KEPZ 182300
TAFDMN
TAF
KDMN 182338Z 1900/1924 06010KT P6SM VCSH SCT005 BKN050
     FM190300 VRB05KT P6SM VCSH SCT030 BKN100
     FM190800 25005KT P6SM VCSH SCT025 BKN040 OVC100
     FM191700 27010KT P6SM VCSH SCT040 BKN120=



    US Dept of Commerce
    National Oceanic and Atmospheric Administration
    National Weather Service
    1325 East West Highway
    Silver Spring, MD 20910
    Page Author: NWS Internet Services Team
Disclaimer
Information Quality
Credits
Glossary
Privacy Policy
Freedom of Information Act (FOIA)
About Us
Career Opportunities